sensor_id;sensor_type;location;lat;lon;timestamp;P1;durP1;ratioP1;P2;durP2;ratioP2
31674;SDS011;18276;45.520;11.018;2023-05-02T00:01:19;3.33;;;2.85;;
31674;SDS011;18276;45.520;11.018;2023-05-02T00:03:46;3.97;;;3.00;;
31674;SDS011;18276;45.520;11.018;2023-05-02T00:06:14;5.55;;;2.97;;
31674;SDS011;18276;45.520;11.018;2023-05-02T00:08:41;5.13;;;3.50;;
31674;SDS011;18276;45.520;11.018;2023-05-02T00:11:08;6.22;;;4.38;;
31674;SDS011;18276;45.520;11.018;2023-05-02T00:13:35;5.78;;;3.58;;
31674;SDS011;18276;45.520;11.018;2023-05-02T00:16:02;5.55;;;3.28;;
31674;SDS011;18276;45.520;11.018;2023-05-02T00:18:29;4.55;;;3.80;;
31674;SDS011;18276;45.520;11.018;2023-05-02T00:20:56;4.22;;;3.40;;
31674;SDS011;18276;45.520;11.018;2023-05-02T00:23:23;4.60;;;3.67;;
31674;SDS011;18276;45.520;11.018;2023-05-02T00:25:50;3.75;;;2.85;;
31674;SDS011;18276;45.520;11.018;2023-05-02T00:28:17;4.63;;;3.00;;
31674;SDS011;18276;45.520;11.018;2023-05-02T00:30:44;4.45;;;2.97;;
31674;SDS011;18276;45.520;11.018;2023-05-02T00:33:12;4.75;;;2.90;;
31674;SDS011;18276;45.520;11.018;2023-05-02T00:35:40;6.80;;;3.30;;
31674;SDS011;18276;45.520;11.018;2023-05-02T00:38:07;6.43;;;3.53;;
31674;SDS011;18276;45.520;11.018;2023-05-02T00:40:41;3.22;;;2.60;;
31674;SDS011;18276;45.520;11.018;2023-05-02T00:43:16;3.03;;;2.72;;
31674;SDS011;18276;45.520;11.018;2023-05-02T00:45:44;3.22;;;2.90;;
31674;SDS011;18276;45.520;11.018;2023-05-02T00:48:13;3.35;;;3.00;;
31674;SDS011;18276;45.520;11.018;2023-05-02T00:50:43;3.45;;;2.60;;
31674;SDS011;18276;45.520;11.018;2023-05-02T00:53:10;3.28;;;2.53;;
31674;SDS011;18276;45.520;11.018;2023-05-02T00:55:37;4.60;;;2.63;;
31674;SDS011;18276;45.520;11.018;2023-05-02T00:58:07;3.58;;;2.10;;
31674;SDS011;18276;45.520;11.018;2023-05-02T01:06:12;2.38;;;2.17;;
31674;SDS011;18276;45.520;11.018;2023-05-02T01:13:54;2.03;;;1.83;;
31674;SDS011;18276;45.520;11.018;2023-05-02T01:16:27;2.42;;;1.80;;
31674;SDS011;18276;45.520;11.018;2023-05-02T01:18:54;2.30;;;1.80;;
31674;SDS011;18276;45.520;11.018;2023-05-02T01:21:22;1.98;;;1.80;;
31674;SDS011;18276;45.520;11.018;2023-05-02T01:23:59;1.90;;;1.70;;
31674;SDS011;18276;45.520;11.018;2023-05-02T01:26:36;1.73;;;1.58;;
31674;SDS011;18276;45.520;11.018;2023-05-02T01:29:24;1.77;;;1.65;;
31674;SDS011;18276;45.520;11.018;2023-05-02T01:31:54;1.77;;;1.67;;
31674;SDS011;18276;45.520;11.018;2023-05-02T01:34:24;2.58;;;2.35;;
31674;SDS011;18276;45.520;11.018;2023-05-02T01:36:53;2.58;;;2.20;;
31674;SDS011;18276;45.520;11.018;2023-05-02T01:39:24;2.50;;;2.05;;
31674;SDS011;18276;45.520;11.018;2023-05-02T01:41:53;1.88;;;1.70;;
31674;SDS011;18276;45.520;11.018;2023-05-02T01:44:23;1.25;;;1.15;;
31674;SDS011;18276;45.520;11.018;2023-05-02T01:46:50;1.85;;;1.42;;
31674;SDS011;18276;45.520;11.018;2023-05-02T01:49:20;1.85;;;1.65;;
31674;SDS011;18276;45.520;11.018;2023-05-02T01:51:49;1.42;;;1.33;;
31674;SDS011;18276;45.520;11.018;2023-05-02T01:54:19;2.72;;;1.40;;
31674;SDS011;18276;45.520;11.018;2023-05-02T01:56:48;1.42;;;1.33;;
31674;SDS011;18276;45.520;11.018;2023-05-02T01:59:20;1.25;;;1.10;;
31674;SDS011;18276;45.520;11.018;2023-05-02T02:01:49;2.30;;;1.35;;
31674;SDS011;18276;45.520;11.018;2023-05-02T02:04:18;1.58;;;1.23;;
31674;SDS011;18276;45.520;11.018;2023-05-02T02:06:47;1.10;;;1.00;;
31674;SDS011;18276;45.520;11.018;2023-05-02T02:09:19;1.83;;;1.38;;
31674;SDS011;18276;45.520;11.018;2023-05-02T02:11:48;2.70;;;1.20;;
31674;SDS011;18276;45.520;11.018;2023-05-02T02:14:21;1.95;;;1.50;;
31674;SDS011;18276;45.520;11.018;2023-05-02T02:16:54;1.27;;;1.17;;
31674;SDS011;18276;45.520;11.018;2023-05-02T02:19:23;2.58;;;1.20;;
31674;SDS011;18276;45.520;11.018;2023-05-02T02:21:50;2.15;;;1.15;;
31674;SDS011;18276;45.520;11.018;2023-05-02T02:24:20;1.73;;;0.98;;
31674;SDS011;18276;45.520;11.018;2023-05-02T02:26:49;2.80;;;1.00;;
31674;SDS011;18276;45.520;11.018;2023-05-02T02:29:16;2.63;;;1.17;;
31674;SDS011;18276;45.520;11.018;2023-05-02T02:31:45;1.25;;;1.15;;
31674;SDS011;18276;45.520;11.018;2023-05-02T02:34:13;1.20;;;1.10;;
31674;SDS011;18276;45.520;11.018;2023-05-02T02:36:47;1.10;;;1.00;;
31674;SDS011;18276;45.520;11.018;2023-05-02T02:39:38;1.35;;;1.10;;
31674;SDS011;18276;45.520;11.018;2023-05-02T02:42:33;2.05;;;0.90;;
31674;SDS011;18276;45.520;11.018;2023-05-02T02:45:18;1.63;;;1.00;;
31674;SDS011;18276;45.520;11.018;2023-05-02T02:53:24;1.60;;;1.00;;
31674;SDS011;18276;45.520;11.018;2023-05-02T02:56:11;1.00;;;0.90;;
31674;SDS011;18276;45.520;11.018;2023-05-02T02:59:02;1.13;;;1.00;;
31674;SDS011;18276;45.520;11.018;2023-05-02T03:01:42;0.80;;;0.80;;
31674;SDS011;18276;45.520;11.018;2023-05-02T03:04:19;1.70;;;0.80;;
31674;SDS011;18276;45.520;11.018;2023-05-02T03:06:49;1.17;;;1.00;;
31674;SDS011;18276;45.520;11.018;2023-05-02T03:09:16;1.17;;;1.08;;
31674;SDS011;18276;45.520;11.018;2023-05-02T03:11:46;0.88;;;0.80;;
31674;SDS011;18276;45.520;11.018;2023-05-02T03:14:14;1.52;;;0.80;;
31674;SDS011;18276;45.520;11.018;2023-05-02T03:16:41;0.90;;;0.77;;
31674;SDS011;18276;45.520;11.018;2023-05-02T03:19:13;0.80;;;0.73;;
31674;SDS011;18276;45.520;11.018;2023-05-02T03:21:40;0.70;;;0.70;;
31674;SDS011;18276;45.520;11.018;2023-05-02T03:24:16;1.00;;;0.90;;
31674;SDS011;18276;45.520;11.018;2023-05-02T03:26:45;2.92;;;0.75;;
31674;SDS011;18276;45.520;11.018;2023-05-02T03:29:16;1.13;;;0.70;;
31674;SDS011;18276;45.520;11.018;2023-05-02T03:31:44;3.30;;;0.93;;
31674;SDS011;18276;45.520;11.018;2023-05-02T03:34:12;1.13;;;0.93;;
31674;SDS011;18276;45.520;11.018;2023-05-02T03:36:39;1.95;;;0.80;;
31674;SDS011;18276;45.520;11.018;2023-05-02T03:39:06;1.75;;;0.82;;
31674;SDS011;18276;45.520;11.018;2023-05-02T03:41:34;1.30;;;0.95;;
31674;SDS011;18276;45.520;11.018;2023-05-02T03:44:05;2.38;;;0.70;;
31674;SDS011;18276;45.520;11.018;2023-05-02T03:46:33;1.45;;;0.70;;
31674;SDS011;18276;45.520;11.018;2023-05-02T03:49:03;1.65;;;0.90;;
31674;SDS011;18276;45.520;11.018;2023-05-02T03:51:30;1.80;;;0.98;;
31674;SDS011;18276;45.520;11.018;2023-05-02T03:53:59;4.10;;;1.00;;
31674;SDS011;18276;45.520;11.018;2023-05-02T03:56:28;1.10;;;1.00;;
31674;SDS011;18276;45.520;11.018;2023-05-02T03:59:07;0.90;;;0.90;;
31674;SDS011;18276;45.520;11.018;2023-05-02T04:01:34;1.05;;;0.85;;
31674;SDS011;18276;45.520;11.018;2023-05-02T04:04:01;1.52;;;1.05;;
31674;SDS011;18276;45.520;11.018;2023-05-02T04:06:33;1.27;;;1.02;;
31674;SDS011;18276;45.520;11.018;2023-05-02T04:09:05;2.65;;;1.13;;
31674;SDS011;18276;45.520;11.018;2023-05-02T04:11:40;2.53;;;0.80;;
31674;SDS011;18276;45.520;11.018;2023-05-02T04:14:08;1.00;;;0.82;;
31674;SDS011;18276;45.520;11.018;2023-05-02T04:16:35;1.52;;;1.00;;
31674;SDS011;18276;45.520;11.018;2023-05-02T04:19:03;2.33;;;0.77;;
31674;SDS011;18276;45.520;11.018;2023-05-02T04:21:30;1.77;;;0.85;;
31674;SDS011;18276;45.520;11.018;2023-05-02T04:23:57;1.00;;;0.90;;
31674;SDS011;18276;45.520;11.018;2023-05-02T04:26:24;1.00;;;0.90;;
31674;SDS011;18276;45.520;11.018;2023-05-02T04:28:58;2.45;;;0.82;;
31674;SDS011;18276;45.520;11.018;2023-05-02T04:31:25;4.82;;;0.80;;
31674;SDS011;18276;45.520;11.018;2023-05-02T04:33:52;1.60;;;1.10;;
31674;SDS011;18276;45.520;11.018;2023-05-02T04:36:23;2.13;;;0.85;;
31674;SDS011;18276;45.520;11.018;2023-05-02T04:38:51;1.38;;;0.70;;
31674;SDS011;18276;45.520;11.018;2023-05-02T04:41:19;2.20;;;0.70;;
31674;SDS011;18276;45.520;11.018;2023-05-02T04:43:53;1.88;;;0.90;;
31674;SDS011;18276;45.520;11.018;2023-05-02T04:46:20;1.25;;;0.90;;
31674;SDS011;18276;45.520;11.018;2023-05-02T04:48:47;2.65;;;1.75;;
31674;SDS011;18276;45.520;11.018;2023-05-02T04:51:14;1.48;;;0.80;;
31674;SDS011;18276;45.520;11.018;2023-05-02T04:53:45;1.02;;;1.00;;
31674;SDS011;18276;45.520;11.018;2023-05-02T04:56:13;0.80;;;0.80;;
31674;SDS011;18276;45.520;11.018;2023-05-02T04:58:41;2.70;;;1.20;;
31674;SDS011;18276;45.520;11.018;2023-05-02T05:01:09;1.50;;;1.10;;
31674;SDS011;18276;45.520;11.018;2023-05-02T05:03:36;1.55;;;1.05;;
31674;SDS011;18276;45.520;11.018;2023-05-02T05:06:05;3.72;;;1.20;;
31674;SDS011;18276;45.520;11.018;2023-05-02T05:08:33;1.10;;;1.00;;
31674;SDS011;18276;45.520;11.018;2023-05-02T05:11:00;1.42;;;1.00;;
31674;SDS011;18276;45.520;11.018;2023-05-02T05:13:28;2.10;;;1.05;;
31674;SDS011;18276;45.520;11.018;2023-05-02T05:15:56;1.20;;;1.00;;
31674;SDS011;18276;45.520;11.018;2023-05-02T05:18:27;1.10;;;1.00;;
31674;SDS011;18276;45.520;11.018;2023-05-02T05:20:54;2.10;;;1.10;;
31674;SDS011;18276;45.520;11.018;2023-05-02T05:23:21;3.75;;;1.20;;
31674;SDS011;18276;45.520;11.018;2023-05-02T05:25:48;1.45;;;0.82;;
31674;SDS011;18276;45.520;11.018;2023-05-02T05:28:16;0.85;;;0.85;;
31674;SDS011;18276;45.520;11.018;2023-05-02T05:30:44;1.20;;;1.10;;
31674;SDS011;18276;45.520;11.018;2023-05-02T05:33:15;5.05;;;1.10;;
31674;SDS011;18276;45.520;11.018;2023-05-02T05:35:43;3.58;;;1.30;;
31674;SDS011;18276;45.520;11.018;2023-05-02T05:38:10;5.30;;;1.42;;
31674;SDS011;18276;45.520;11.018;2023-05-02T05:40:40;2.90;;;1.20;;
31674;SDS011;18276;45.520;11.018;2023-05-02T05:43:07;4.10;;;1.13;;
31674;SDS011;18276;45.520;11.018;2023-05-02T05:45:36;2.45;;;0.95;;
31674;SDS011;18276;45.520;11.018;2023-05-02T05:48:04;1.98;;;1.17;;
31674;SDS011;18276;45.520;11.018;2023-05-02T05:50:37;1.73;;;1.20;;
31674;SDS011;18276;45.520;11.018;2023-05-02T05:53:04;3.45;;;1.10;;
31674;SDS011;18276;45.520;11.018;2023-05-02T05:55:33;4.00;;;1.23;;
31674;SDS011;18276;45.520;11.018;2023-05-02T05:58:03;3.75;;;1.10;;
31674;SDS011;18276;45.520;11.018;2023-05-02T06:00:34;5.05;;;1.17;;
31674;SDS011;18276;45.520;11.018;2023-05-02T06:03:02;2.88;;;1.00;;
31674;SDS011;18276;45.520;11.018;2023-05-02T06:05:33;6.45;;;1.52;;
31674;SDS011;18276;45.520;11.018;2023-05-02T06:08:00;2.33;;;1.40;;
31674;SDS011;18276;45.520;11.018;2023-05-02T06:10:27;2.05;;;1.23;;
31674;SDS011;18276;45.520;11.018;2023-05-02T06:12:56;3.22;;;1.13;;
31674;SDS011;18276;45.520;11.018;2023-05-02T06:15:28;4.30;;;1.23;;
31674;SDS011;18276;45.520;11.018;2023-05-02T06:17:55;11.55;;;1.50;;
31674;SDS011;18276;45.520;11.018;2023-05-02T06:20:22;5.15;;;2.67;;
31674;SDS011;18276;45.520;11.018;2023-05-02T06:22:49;5.30;;;1.52;;
31674;SDS011;18276;45.520;11.018;2023-05-02T06:25:16;5.38;;;1.70;;
31674;SDS011;18276;45.520;11.018;2023-05-02T06:27:43;3.08;;;1.80;;
31674;SDS011;18276;45.520;11.018;2023-05-02T06:30:10;4.32;;;2.22;;
31674;SDS011;18276;45.520;11.018;2023-05-02T06:32:37;3.70;;;1.60;;
31674;SDS011;18276;45.520;11.018;2023-05-02T06:35:04;4.40;;;1.75;;
31674;SDS011;18276;45.520;11.018;2023-05-02T06:37:32;7.13;;;1.88;;
31674;SDS011;18276;45.520;11.018;2023-05-02T06:40:01;4.28;;;1.95;;
31674;SDS011;18276;45.520;11.018;2023-05-02T06:42:29;3.75;;;1.50;;
31674;SDS011;18276;45.520;11.018;2023-05-02T06:44:56;5.32;;;2.13;;
31674;SDS011;18276;45.520;11.018;2023-05-02T06:47:23;2.75;;;1.50;;
31674;SDS011;18276;45.520;11.018;2023-05-02T06:49:51;8.23;;;1.70;;
31674;SDS011;18276;45.520;11.018;2023-05-02T06:52:19;7.43;;;2.17;;
31674;SDS011;18276;45.520;11.018;2023-05-02T06:54:46;5.20;;;2.22;;
31674;SDS011;18276;45.520;11.018;2023-05-02T06:57:12;4.38;;;2.22;;
31674;SDS011;18276;45.520;11.018;2023-05-02T06:59:39;5.03;;;2.00;;
31674;SDS011;18276;45.520;11.018;2023-05-02T07:02:06;5.82;;;2.20;;
31674;SDS011;18276;45.520;11.018;2023-05-02T07:04:33;8.85;;;2.42;;
31674;SDS011;18276;45.520;11.018;2023-05-02T07:07:01;5.97;;;1.80;;
31674;SDS011;18276;45.520;11.018;2023-05-02T07:09:29;7.40;;;2.53;;
31674;SDS011;18276;45.520;11.018;2023-05-02T07:11:56;6.22;;;1.83;;
31674;SDS011;18276;45.520;11.018;2023-05-02T07:14:23;8.15;;;1.70;;
31674;SDS011;18276;45.520;11.018;2023-05-02T07:16:50;5.03;;;1.90;;
31674;SDS011;18276;45.520;11.018;2023-05-02T07:19:17;4.78;;;1.92;;
31674;SDS011;18276;45.520;11.018;2023-05-02T07:21:44;10.43;;;1.83;;
31674;SDS011;18276;45.520;11.018;2023-05-02T07:24:11;5.65;;;1.50;;
31674;SDS011;18276;45.520;11.018;2023-05-02T07:26:38;4.18;;;1.42;;
31674;SDS011;18276;45.520;11.018;2023-05-02T07:29:05;3.70;;;1.60;;
31674;SDS011;18276;45.520;11.018;2023-05-02T07:31:32;5.90;;;1.80;;
31674;SDS011;18276;45.520;11.018;2023-05-02T07:33:59;6.57;;;1.67;;
31674;SDS011;18276;45.520;11.018;2023-05-02T07:36:26;3.83;;;1.65;;
31674;SDS011;18276;45.520;11.018;2023-05-02T07:38:53;4.47;;;1.42;;
31674;SDS011;18276;45.520;11.018;2023-05-02T07:41:20;5.75;;;1.45;;
31674;SDS011;18276;45.520;11.018;2023-05-02T07:43:47;3.92;;;1.50;;
31674;SDS011;18276;45.520;11.018;2023-05-02T07:46:14;7.10;;;2.15;;
31674;SDS011;18276;45.520;11.018;2023-05-02T07:48:41;5.95;;;2.10;;
31674;SDS011;18276;45.520;11.018;2023-05-02T07:51:09;5.03;;;2.00;;
31674;SDS011;18276;45.520;11.018;2023-05-02T07:53:36;8.23;;;2.60;;
31674;SDS011;18276;45.520;11.018;2023-05-02T07:56:03;4.13;;;1.80;;
31674;SDS011;18276;45.520;11.018;2023-05-02T07:58:34;8.05;;;2.88;;
31674;SDS011;18276;45.520;11.018;2023-05-02T08:01:02;5.07;;;1.80;;
31674;SDS011;18276;45.520;11.018;2023-05-02T08:03:30;8.18;;;2.10;;
31674;SDS011;18276;45.520;11.018;2023-05-02T08:05:57;6.32;;;2.10;;
31674;SDS011;18276;45.520;11.018;2023-05-02T08:08:24;7.35;;;2.00;;
31674;SDS011;18276;45.520;11.018;2023-05-02T08:10:51;9.85;;;2.10;;
31674;SDS011;18276;45.520;11.018;2023-05-02T08:13:18;6.40;;;2.40;;
31674;SDS011;18276;45.520;11.018;2023-05-02T08:15:45;9.23;;;3.00;;
31674;SDS011;18276;45.520;11.018;2023-05-02T08:18:12;7.20;;;2.33;;
31674;SDS011;18276;45.520;11.018;2023-05-02T08:20:39;12.73;;;3.08;;
31674;SDS011;18276;45.520;11.018;2023-05-02T08:23:06;26.27;;;2.90;;
31674;SDS011;18276;45.520;11.018;2023-05-02T08:25:33;7.15;;;2.72;;
31674;SDS011;18276;45.520;11.018;2023-05-02T08:28:00;7.60;;;2.33;;
31674;SDS011;18276;45.520;11.018;2023-05-02T08:30:27;5.28;;;2.03;;
31674;SDS011;18276;45.520;11.018;2023-05-02T08:32:53;4.55;;;2.30;;
31674;SDS011;18276;45.520;11.018;2023-05-02T08:35:21;8.90;;;3.33;;
31674;SDS011;18276;45.520;11.018;2023-05-02T08:37:48;6.55;;;3.10;;
31674;SDS011;18276;45.520;11.018;2023-05-02T08:40:14;5.43;;;2.97;;
31674;SDS011;18276;45.520;11.018;2023-05-02T08:42:59;4.28;;;2.45;;
31674;SDS011;18276;45.520;11.018;2023-05-02T08:45:26;6.45;;;2.83;;
31674;SDS011;18276;45.520;11.018;2023-05-02T08:48:15;4.53;;;2.55;;
31674;SDS011;18276;45.520;11.018;2023-05-02T08:50:44;3.53;;;2.50;;
31674;SDS011;18276;45.520;11.018;2023-05-02T08:53:13;2.75;;;2.35;;
31674;SDS011;18276;45.520;11.018;2023-05-02T08:55:41;5.78;;;2.80;;
31674;SDS011;18276;45.520;11.018;2023-05-02T08:58:09;5.90;;;4.10;;
31674;SDS011;18276;45.520;11.018;2023-05-02T09:00:38;11.50;;;7.43;;
31674;SDS011;18276;45.520;11.018;2023-05-02T09:05:52;26.98;;;14.27;;
31674;SDS011;18276;45.520;11.018;2023-05-02T09:08:21;9.00;;;5.13;;
31674;SDS011;18276;45.520;11.018;2023-05-02T09:10:49;10.07;;;4.70;;
31674;SDS011;18276;45.520;11.018;2023-05-02T09:16:15;9.23;;;4.68;;
31674;SDS011;18276;45.520;11.018;2023-05-02T09:18:51;6.65;;;5.10;;
31674;SDS011;18276;45.520;11.018;2023-05-02T09:21:21;8.77;;;4.68;;
31674;SDS011;18276;45.520;11.018;2023-05-02T09:23:53;4.22;;;2.70;;
31674;SDS011;18276;45.520;11.018;2023-05-02T09:28:52;5.70;;;3.33;;
31674;SDS011;18276;45.520;11.018;2023-05-02T09:31:25;6.80;;;3.22;;
31674;SDS011;18276;45.520;11.018;2023-05-02T09:34:15;3.85;;;2.72;;
31674;SDS011;18276;45.520;11.018;2023-05-02T09:36:44;3.92;;;2.90;;
31674;SDS011;18276;45.520;11.018;2023-05-02T09:39:13;6.20;;;2.70;;
31674;SDS011;18276;45.520;11.018;2023-05-02T09:41:42;5.88;;;2.20;;
31674;SDS011;18276;45.520;11.018;2023-05-02T09:44:11;4.13;;;2.10;;
31674;SDS011;18276;45.520;11.018;2023-05-02T09:46:44;4.90;;;2.22;;
31674;SDS011;18276;45.520;11.018;2023-05-02T09:49:16;6.53;;;2.50;;
31674;SDS011;18276;45.520;11.018;2023-05-02T09:51:48;2.15;;;1.70;;
31674;SDS011;18276;45.520;11.018;2023-05-02T09:54:34;2.90;;;1.40;;
31674;SDS011;18276;45.520;11.018;2023-05-02T09:57:02;3.20;;;1.30;;
31674;SDS011;18276;45.520;11.018;2023-05-02T09:59:29;3.83;;;2.28;;
31674;SDS011;18276;45.520;11.018;2023-05-02T10:01:56;2.10;;;1.73;;
31674;SDS011;18276;45.520;11.018;2023-05-02T10:04:26;5.35;;;2.22;;
31674;SDS011;18276;45.520;11.018;2023-05-02T10:06:54;6.07;;;2.40;;
31674;SDS011;18276;45.520;11.018;2023-05-02T10:09:21;1.58;;;1.30;;
31674;SDS011;18276;45.520;11.018;2023-05-02T10:11:52;2.17;;;1.92;;
31674;SDS011;18276;45.520;11.018;2023-05-02T10:14:22;1.87;;;1.47;;
31674;SDS011;18276;45.520;11.018;2023-05-02T10:17:04;4.03;;;1.63;;
31674;SDS011;18276;45.520;11.018;2023-05-02T10:19:44;2.92;;;1.80;;
31674;SDS011;18276;45.520;11.018;2023-05-02T10:22:29;2.50;;;1.50;;
31674;SDS011;18276;45.520;11.018;2023-05-02T10:24:58;2.75;;;1.30;;
31674;SDS011;18276;45.520;11.018;2023-05-02T10:27:29;2.67;;;1.70;;
31674;SDS011;18276;45.520;11.018;2023-05-02T10:29:57;2.22;;;1.60;;
31674;SDS011;18276;45.520;11.018;2023-05-02T10:32:26;2.67;;;1.17;;
31674;SDS011;18276;45.520;11.018;2023-05-02T10:34:56;2.58;;;2.10;;
31674;SDS011;18276;45.520;11.018;2023-05-02T10:37:28;2.92;;;1.08;;
31674;SDS011;18276;45.520;11.018;2023-05-02T10:39:58;1.77;;;1.00;;
31674;SDS011;18276;45.520;11.018;2023-05-02T10:42:27;2.83;;;1.20;;
31674;SDS011;18276;45.520;11.018;2023-05-02T10:44:55;1.58;;;1.20;;
31674;SDS011;18276;45.520;11.018;2023-05-02T10:49:51;3.10;;;1.50;;
31674;SDS011;18276;45.520;11.018;2023-05-02T11:00:27;1.20;;;1.10;;
31674;SDS011;18276;45.520;11.018;2023-05-02T11:02:59;0.93;;;0.93;;
31674;SDS011;18276;45.520;11.018;2023-05-02T11:05:27;1.55;;;0.80;;
31674;SDS011;18276;45.520;11.018;2023-05-02T11:10:41;1.20;;;1.10;;
31674;SDS011;18276;45.520;11.018;2023-05-02T11:13:08;0.95;;;0.95;;
31674;SDS011;18276;45.520;11.018;2023-05-02T11:18:06;3.58;;;1.77;;
31674;SDS011;18276;45.520;11.018;2023-05-02T11:20:34;4.22;;;1.45;;
31674;SDS011;18276;45.520;11.018;2023-05-02T11:25:43;1.63;;;1.20;;
31674;SDS011;18276;45.520;11.018;2023-05-02T11:31:03;1.02;;;0.80;;
31674;SDS011;18276;45.520;11.018;2023-05-02T11:33:32;5.18;;;1.17;;
31674;SDS011;18276;45.520;11.018;2023-05-02T11:35:59;1.25;;;0.88;;
31674;SDS011;18276;45.520;11.018;2023-05-02T11:38:34;1.60;;;0.77;;
31674;SDS011;18276;45.520;11.018;2023-05-02T11:41:02;1.27;;;0.90;;
31674;SDS011;18276;45.520;11.018;2023-05-02T11:43:30;1.02;;;0.80;;
31674;SDS011;18276;45.520;11.018;2023-05-02T11:45:58;1.08;;;0.98;;
31674;SDS011;18276;45.520;11.018;2023-05-02T11:48:27;1.98;;;0.70;;
31674;SDS011;18276;45.520;11.018;2023-05-02T11:50:59;4.28;;;3.65;;
31674;SDS011;18276;45.520;11.018;2023-05-02T11:53:31;1.20;;;1.10;;
31674;SDS011;18276;45.520;11.018;2023-05-02T11:56:02;1.42;;;0.80;;
31674;SDS011;18276;45.520;11.018;2023-05-02T11:58:30;1.00;;;0.90;;
31674;SDS011;18276;45.520;11.018;2023-05-02T12:01:11;0.77;;;0.65;;
31674;SDS011;18276;45.520;11.018;2023-05-02T12:03:40;2.58;;;0.80;;
31674;SDS011;18276;45.520;11.018;2023-05-02T12:06:08;1.95;;;0.80;;
31674;SDS011;18276;45.520;11.018;2023-05-02T12:08:38;5.47;;;3.00;;
31674;SDS011;18276;45.520;11.018;2023-05-02T12:11:06;1.60;;;1.27;;
31674;SDS011;18276;45.520;11.018;2023-05-02T12:13:34;1.58;;;0.85;;
31674;SDS011;18276;45.520;11.018;2023-05-02T12:16:10;1.48;;;0.77;;
31674;SDS011;18276;45.520;11.018;2023-05-02T12:18:38;1.60;;;0.90;;
31674;SDS011;18276;45.520;11.018;2023-05-02T12:21:06;4.68;;;1.10;;
31674;SDS011;18276;45.520;11.018;2023-05-02T12:23:34;3.97;;;1.92;;
31674;SDS011;18276;45.520;11.018;2023-05-02T12:26:18;1.33;;;1.17;;
31674;SDS011;18276;45.520;11.018;2023-05-02T12:28:48;0.68;;;0.63;;
31674;SDS011;18276;45.520;11.018;2023-05-02T12:31:23;1.48;;;0.50;;
31674;SDS011;18276;45.520;11.018;2023-05-02T12:33:52;1.60;;;0.90;;
31674;SDS011;18276;45.520;11.018;2023-05-02T12:36:23;0.50;;;0.50;;
31674;SDS011;18276;45.520;11.018;2023-05-02T12:38:51;9.77;;;1.63;;
31674;SDS011;18276;45.520;11.018;2023-05-02T12:41:31;5.65;;;1.55;;
31674;SDS011;18276;45.520;11.018;2023-05-02T12:44:00;0.63;;;0.60;;
31674;SDS011;18276;45.520;11.018;2023-05-02T12:46:27;0.70;;;0.70;;
31674;SDS011;18276;45.520;11.018;2023-05-02T12:49:01;9.70;;;2.75;;
31674;SDS011;18276;45.520;11.018;2023-05-02T12:51:33;0.63;;;0.63;;
31674;SDS011;18276;45.520;11.018;2023-05-02T12:54:01;4.78;;;1.27;;
31674;SDS011;18276;45.520;11.018;2023-05-02T12:56:29;3.90;;;0.70;;
31674;SDS011;18276;45.520;11.018;2023-05-02T12:59:04;2.88;;;1.80;;
31674;SDS011;18276;45.520;11.018;2023-05-02T13:01:32;2.38;;;0.80;;
31674;SDS011;18276;45.520;11.018;2023-05-02T13:04:00;0.57;;;0.57;;
31674;SDS011;18276;45.520;11.018;2023-05-02T13:06:27;1.98;;;1.00;;
31674;SDS011;18276;45.520;11.018;2023-05-02T13:08:54;0.80;;;0.80;;
31674;SDS011;18276;45.520;11.018;2023-05-02T13:11:21;0.70;;;0.70;;
31674;SDS011;18276;45.520;11.018;2023-05-02T13:13:48;1.58;;;0.70;;
31674;SDS011;18276;45.520;11.018;2023-05-02T13:16:15;2.00;;;1.20;;
31674;SDS011;18276;45.520;11.018;2023-05-02T13:18:42;1.17;;;1.00;;
31674;SDS011;18276;45.520;11.018;2023-05-02T13:21:13;2.55;;;1.00;;
31674;SDS011;18276;45.520;11.018;2023-05-02T13:23:40;3.28;;;1.23;;
31674;SDS011;18276;45.520;11.018;2023-05-02T13:26:07;1.65;;;0.80;;
31674;SDS011;18276;45.520;11.018;2023-05-02T13:28:34;0.75;;;0.70;;
31674;SDS011;18276;45.520;11.018;2023-05-02T13:31:02;1.10;;;1.00;;
31674;SDS011;18276;45.520;11.018;2023-05-02T13:33:30;0.70;;;0.70;;
31674;SDS011;18276;45.520;11.018;2023-05-02T13:35:57;2.28;;;1.48;;
31674;SDS011;18276;45.520;11.018;2023-05-02T13:38:24;2.28;;;0.95;;
31674;SDS011;18276;45.520;11.018;2023-05-02T13:40:52;1.10;;;1.00;;
31674;SDS011;18276;45.520;11.018;2023-05-02T13:43:19;2.47;;;1.40;;
31674;SDS011;18276;45.520;11.018;2023-05-02T13:45:46;0.80;;;0.80;;
31674;SDS011;18276;45.520;11.018;2023-05-02T13:48:14;1.30;;;0.90;;
31674;SDS011;18276;45.520;11.018;2023-05-02T13:50:41;1.35;;;1.10;;
31674;SDS011;18276;45.520;11.018;2023-05-02T13:53:08;0.80;;;0.75;;
31674;SDS011;18276;45.520;11.018;2023-05-02T13:55:36;2.03;;;1.00;;
31674;SDS011;18276;45.520;11.018;2023-05-02T13:58:03;3.20;;;0.90;;
31674;SDS011;18276;45.520;11.018;2023-05-02T14:00:31;1.33;;;0.82;;
31674;SDS011;18276;45.520;11.018;2023-05-02T14:02:58;1.05;;;0.80;;
31674;SDS011;18276;45.520;11.018;2023-05-02T14:05:25;2.53;;;0.80;;
31674;SDS011;18276;45.520;11.018;2023-05-02T14:07:52;0.98;;;0.80;;
31674;SDS011;18276;45.520;11.018;2023-05-02T14:10:19;1.08;;;0.60;;
31674;SDS011;18276;45.520;11.018;2023-05-02T14:12:46;0.75;;;0.60;;
31674;SDS011;18276;45.520;11.018;2023-05-02T14:15:14;1.98;;;1.30;;
31674;SDS011;18276;45.520;11.018;2023-05-02T14:17:41;1.88;;;0.57;;
31674;SDS011;18276;45.520;11.018;2023-05-02T14:20:08;1.58;;;0.70;;
31674;SDS011;18276;45.520;11.018;2023-05-02T14:22:36;0.60;;;0.60;;
31674;SDS011;18276;45.520;11.018;2023-05-02T14:25:03;0.85;;;0.70;;
31674;SDS011;18276;45.520;11.018;2023-05-02T14:27:31;1.90;;;0.52;;
31674;SDS011;18276;45.520;11.018;2023-05-02T14:29:58;2.47;;;0.80;;
31674;SDS011;18276;45.520;11.018;2023-05-02T14:32:25;1.00;;;0.80;;
31674;SDS011;18276;45.520;11.018;2023-05-02T14:34:53;2.67;;;1.00;;
31674;SDS011;18276;45.520;11.018;2023-05-02T14:37:20;1.25;;;0.70;;
31674;SDS011;18276;45.520;11.018;2023-05-02T14:39:47;5.97;;;0.60;;
31674;SDS011;18276;45.520;11.018;2023-05-02T14:42:26;0.60;;;0.50;;
31674;SDS011;18276;45.520;11.018;2023-05-02T14:44:53;1.90;;;0.70;;
31674;SDS011;18276;45.520;11.018;2023-05-02T14:47:22;0.95;;;0.73;;
31674;SDS011;18276;45.520;11.018;2023-05-02T14:49:50;0.70;;;0.70;;
31674;SDS011;18276;45.520;11.018;2023-05-02T14:52:17;0.70;;;0.70;;
31674;SDS011;18276;45.520;11.018;2023-05-02T14:54:44;1.05;;;0.77;;
31674;SDS011;18276;45.520;11.018;2023-05-02T14:57:12;2.70;;;0.88;;
31674;SDS011;18276;45.520;11.018;2023-05-02T14:59:40;1.13;;;1.02;;
31674;SDS011;18276;45.520;11.018;2023-05-02T15:02:08;3.47;;;1.10;;
31674;SDS011;18276;45.520;11.018;2023-05-02T15:04:35;0.93;;;0.90;;
31674;SDS011;18276;45.520;11.018;2023-05-02T15:07:03;2.22;;;0.88;;
31674;SDS011;18276;45.520;11.018;2023-05-02T15:09:30;3.10;;;1.85;;
31674;SDS011;18276;45.520;11.018;2023-05-02T15:11:57;2.17;;;1.98;;
31674;SDS011;18276;45.520;11.018;2023-05-02T15:14:24;2.30;;;1.70;;
31674;SDS011;18276;45.520;11.018;2023-05-02T15:16:51;2.03;;;1.20;;
31674;SDS011;18276;45.520;11.018;2023-05-02T15:19:19;2.83;;;1.20;;
31674;SDS011;18276;45.520;11.018;2023-05-02T15:21:47;6.40;;;1.13;;
31674;SDS011;18276;45.520;11.018;2023-05-02T15:24:15;1.38;;;1.27;;
31674;SDS011;18276;45.520;11.018;2023-05-02T15:26:42;2.25;;;1.10;;
31674;SDS011;18276;45.520;11.018;2023-05-02T15:29:09;1.58;;;1.05;;
31674;SDS011;18276;45.520;11.018;2023-05-02T15:31:36;3.03;;;1.10;;